sensor_id;sensor_type;location;lat;lon;timestamp;temperature;humidity
1614;DHT22;800;48.824;9.346;2023-12-04T00:02:20;1.00;60.50
1614;DHT22;800;48.824;9.346;2023-12-04T00:04:45;1.20;60.20
1614;DHT22;800;48.824;9.346;2023-12-04T00:07:11;1.40;59.20
1614;DHT22;800;48.824;9.346;2023-12-04T00:09:36;1.70;58.90
1614;DHT22;800;48.824;9.346;2023-12-04T00:12:02;1.70;58.30
1614;DHT22;800;48.824;9.346;2023-12-04T00:14:27;1.80;58.20
1614;DHT22;800;48.824;9.346;2023-12-04T00:16:53;1.60;58.10
1614;DHT22;800;48.824;9.346;2023-12-04T00:19:19;1.60;58.40
1614;DHT22;800;48.824;9.346;2023-12-04T00:21:44;1.70;58.30
1614;DHT22;800;48.824;9.346;2023-12-04T00:24:10;1.60;58.10
1614;DHT22;800;48.824;9.346;2023-12-04T00:26:35;1.50;58.30
1614;DHT22;800;48.824;9.346;2023-12-04T00:29:01;1.70;58.50
1614;DHT22;800;48.824;9.346;2023-12-04T00:31:26;1.80;58.00
1614;DHT22;800;48.824;9.346;2023-12-04T00:33:52;2.00;57.80
1614;DHT22;800;48.824;9.346;2023-12-04T00:36:17;2.10;57.20
1614;DHT22;800;48.824;9.346;2023-12-04T00:38:45;2.20;56.80
1614;DHT22;800;48.824;9.346;2023-12-04T00:41:11;2.30;56.40
1614;DHT22;800;48.824;9.346;2023-12-04T00:43:37;2.40;56.70
1614;DHT22;800;48.824;9.346;2023-12-04T00:46:02;2.50;55.80
1614;DHT22;800;48.824;9.346;2023-12-04T00:48:28;2.50;55.70
1614;DHT22;800;48.824;9.346;2023-12-04T00:50:54;2.60;55.80
1614;DHT22;800;48.824;9.346;2023-12-04T00:53:20;2.60;55.60
1614;DHT22;800;48.824;9.346;2023-12-04T00:55:46;2.60;55.40
1614;DHT22;800;48.824;9.346;2023-12-04T00:58:11;2.60;55.10
1614;DHT22;800;48.824;9.346;2023-12-04T01:00:38;2.50;55.20
1614;DHT22;800;48.824;9.346;2023-12-04T01:03:03;2.40;55.40
1614;DHT22;800;48.824;9.346;2023-12-04T01:05:29;2.20;55.40
1614;DHT22;800;48.824;9.346;2023-12-04T01:07:54;2.00;55.80
1614;DHT22;800;48.824;9.346;2023-12-04T01:10:20;2.00;56.20
1614;DHT22;800;48.824;9.346;2023-12-04T01:12:46;2.00;56.20
1614;DHT22;800;48.824;9.346;2023-12-04T01:15:11;2.10;56.10
1614;DHT22;800;48.824;9.346;2023-12-04T01:17:37;2.10;55.30
1614;DHT22;800;48.824;9.346;2023-12-04T01:20:02;2.00;55.30
1614;DHT22;800;48.824;9.346;2023-12-04T01:22:28;2.00;55.30
1614;DHT22;800;48.824;9.346;2023-12-04T01:24:53;1.40;56.30
1614;DHT22;800;48.824;9.346;2023-12-04T01:27:19;1.10;56.90
1614;DHT22;800;48.824;9.346;2023-12-04T01:29:44;1.20;57.60
1614;DHT22;800;48.824;9.346;2023-12-04T01:32:10;1.30;57.40
1614;DHT22;800;48.824;9.346;2023-12-04T01:34:36;1.40;57.10
1614;DHT22;800;48.824;9.346;2023-12-04T01:37:01;1.50;56.90
1614;DHT22;800;48.824;9.346;2023-12-04T01:39:27;1.70;56.70
1614;DHT22;800;48.824;9.346;2023-12-04T01:41:52;1.80;56.30
1614;DHT22;800;48.824;9.346;2023-12-04T01:44:19;1.90;56.00
1614;DHT22;800;48.824;9.346;2023-12-04T01:46:44;1.80;55.70
1614;DHT22;800;48.824;9.346;2023-12-04T01:49:10;1.70;55.70
1614;DHT22;800;48.824;9.346;2023-12-04T01:51:36;1.60;55.80
1614;DHT22;800;48.824;9.346;2023-12-04T01:54:03;1.60;55.80
1614;DHT22;800;48.824;9.346;2023-12-04T01:56:29;1.70;55.80
1614;DHT22;800;48.824;9.346;2023-12-04T01:58:55;1.80;55.40
1614;DHT22;800;48.824;9.346;2023-12-04T02:01:22;1.90;55.40
1614;DHT22;800;48.824;9.346;2023-12-04T02:03:49;1.90;55.30
1614;DHT22;800;48.824;9.346;2023-12-04T02:06:16;2.00;55.50
1614;DHT22;800;48.824;9.346;2023-12-04T02:08:42;2.00;55.70
1614;DHT22;800;48.824;9.346;2023-12-04T02:11:08;2.00;55.70
1614;DHT22;800;48.824;9.346;2023-12-04T02:13:35;2.10;55.60
1614;DHT22;800;48.824;9.346;2023-12-04T02:16:03;2.10;55.40
1614;DHT22;800;48.824;9.346;2023-12-04T02:18:33;2.10;55.30
1614;DHT22;800;48.824;9.346;2023-12-04T02:21:01;2.20;55.40
1614;DHT22;800;48.824;9.346;2023-12-04T02:23:27;2.20;55.10
1614;DHT22;800;48.824;9.346;2023-12-04T02:25:58;2.10;55.10
1614;DHT22;800;48.824;9.346;2023-12-04T02:28:27;2.00;55.50
1614;DHT22;800;48.824;9.346;2023-12-04T02:30:54;2.10;55.30
1614;DHT22;800;48.824;9.346;2023-12-04T02:33:23;2.10;55.40
1614;DHT22;800;48.824;9.346;2023-12-04T02:35:50;2.10;55.60
1614;DHT22;800;48.824;9.346;2023-12-04T02:38:16;2.10;55.60
1614;DHT22;800;48.824;9.346;2023-12-04T02:40:43;2.10;55.40
1614;DHT22;800;48.824;9.346;2023-12-04T02:43:09;2.10;55.20
1614;DHT22;800;48.824;9.346;2023-12-04T02:45:34;2.20;55.10
1614;DHT22;800;48.824;9.346;2023-12-04T02:48:00;2.20;54.80
1614;DHT22;800;48.824;9.346;2023-12-04T02:50:25;2.20;54.60
1614;DHT22;800;48.824;9.346;2023-12-04T02:52:51;2.20;54.60
1614;DHT22;800;48.824;9.346;2023-12-04T02:55:16;2.20;54.60
1614;DHT22;800;48.824;9.346;2023-12-04T02:57:42;2.20;54.60
1614;DHT22;800;48.824;9.346;2023-12-04T03:00:08;2.20;54.60
1614;DHT22;800;48.824;9.346;2023-12-04T03:02:34;2.30;54.50
1614;DHT22;800;48.824;9.346;2023-12-04T03:05:00;2.30;54.30
1614;DHT22;800;48.824;9.346;2023-12-04T03:07:25;2.20;54.70
1614;DHT22;800;48.824;9.346;2023-12-04T03:09:51;2.20;54.20
1614;DHT22;800;48.824;9.346;2023-12-04T03:12:17;2.20;54.10
1614;DHT22;800;48.824;9.346;2023-12-04T03:14:42;2.10;54.20
1614;DHT22;800;48.824;9.346;2023-12-04T03:17:08;2.10;54.70
1614;DHT22;800;48.824;9.346;2023-12-04T03:19:34;2.10;54.60
1614;DHT22;800;48.824;9.346;2023-12-04T03:22:01;2.10;54.60
1614;DHT22;800;48.824;9.346;2023-12-04T03:24:26;2.20;54.70
1614;DHT22;800;48.824;9.346;2023-12-04T03:26:52;2.10;54.30
1614;DHT22;800;48.824;9.346;2023-12-04T03:29:18;2.10;54.60
1614;DHT22;800;48.824;9.346;2023-12-04T03:31:43;2.10;54.80
1614;DHT22;800;48.824;9.346;2023-12-04T03:34:09;2.10;54.70
1614;DHT22;800;48.824;9.346;2023-12-04T03:36:34;2.10;54.70
1614;DHT22;800;48.824;9.346;2023-12-04T03:39:00;2.10;54.60
1614;DHT22;800;48.824;9.346;2023-12-04T03:41:25;2.10;54.60
1614;DHT22;800;48.824;9.346;2023-12-04T03:43:51;2.20;54.50
1614;DHT22;800;48.824;9.346;2023-12-04T03:46:16;2.20;54.40
1614;DHT22;800;48.824;9.346;2023-12-04T03:48:42;2.10;54.60
1614;DHT22;800;48.824;9.346;2023-12-04T03:51:08;2.10;54.70
1614;DHT22;800;48.824;9.346;2023-12-04T03:53:33;2.00;54.80
1614;DHT22;800;48.824;9.346;2023-12-04T03:55:59;1.90;55.00
1614;DHT22;800;48.824;9.346;2023-12-04T03:58:24;1.70;55.90
1614;DHT22;800;48.824;9.346;2023-12-04T04:00:50;1.80;56.30
1614;DHT22;800;48.824;9.346;2023-12-04T04:03:16;2.00;56.20
1614;DHT22;800;48.824;9.346;2023-12-04T04:05:41;2.10;55.80
1614;DHT22;800;48.824;9.346;2023-12-04T04:08:07;2.00;55.10
1614;DHT22;800;48.824;9.346;2023-12-04T04:10:33;1.70;55.70
1614;DHT22;800;48.824;9.346;2023-12-04T04:12:59;1.80;56.10
1614;DHT22;800;48.824;9.346;2023-12-04T04:15:25;1.80;56.00
1614;DHT22;800;48.824;9.346;2023-12-04T04:17:51;1.70;56.00
1614;DHT22;800;48.824;9.346;2023-12-04T04:20:17;1.90;56.30
1614;DHT22;800;48.824;9.346;2023-12-04T04:22:42;2.00;56.00
1614;DHT22;800;48.824;9.346;2023-12-04T04:25:08;2.20;55.70
1614;DHT22;800;48.824;9.346;2023-12-04T04:27:34;2.30;55.40
1614;DHT22;800;48.824;9.346;2023-12-04T04:30:00;2.30;55.10
1614;DHT22;800;48.824;9.346;2023-12-04T04:32:26;2.30;54.90
1614;DHT22;800;48.824;9.346;2023-12-04T04:34:52;2.30;54.90
1614;DHT22;800;48.824;9.346;2023-12-04T04:37:17;2.20;54.40
1614;DHT22;800;48.824;9.346;2023-12-04T04:39:43;2.00;55.20
1614;DHT22;800;48.824;9.346;2023-12-04T04:42:08;2.10;55.60
1614;DHT22;800;48.824;9.346;2023-12-04T04:44:34;2.20;56.00
1614;DHT22;800;48.824;9.346;2023-12-04T04:47:00;2.30;55.10
1614;DHT22;800;48.824;9.346;2023-12-04T04:49:25;2.30;55.00
1614;DHT22;800;48.824;9.346;2023-12-04T04:51:51;2.40;54.90
1614;DHT22;800;48.824;9.346;2023-12-04T04:54:16;2.30;54.70
1614;DHT22;800;48.824;9.346;2023-12-04T04:56:42;2.30;54.70
1614;DHT22;800;48.824;9.346;2023-12-04T04:59:07;2.40;54.90
1614;DHT22;800;48.824;9.346;2023-12-04T05:01:33;2.40;54.70
1614;DHT22;800;48.824;9.346;2023-12-04T05:03:58;2.40;54.60
1614;DHT22;800;48.824;9.346;2023-12-04T05:06:25;2.40;54.50
1614;DHT22;800;48.824;9.346;2023-12-04T05:08:51;2.50;54.60
1614;DHT22;800;48.824;9.346;2023-12-04T05:11:17;2.50;54.40
1614;DHT22;800;48.824;9.346;2023-12-04T05:13:44;2.50;54.40
1614;DHT22;800;48.824;9.346;2023-12-04T05:16:10;2.50;54.40
1614;DHT22;800;48.824;9.346;2023-12-04T05:18:36;2.50;54.40
1614;DHT22;800;48.824;9.346;2023-12-04T05:21:01;2.50;54.30
1614;DHT22;800;48.824;9.346;2023-12-04T05:23:28;2.50;54.50
1614;DHT22;800;48.824;9.346;2023-12-04T05:25:53;2.50;54.50
1614;DHT22;800;48.824;9.346;2023-12-04T05:28:19;2.50;54.50
1614;DHT22;800;48.824;9.346;2023-12-04T05:30:44;2.30;54.50
1614;DHT22;800;48.824;9.346;2023-12-04T05:33:10;2.20;54.80
1614;DHT22;800;48.824;9.346;2023-12-04T05:35:35;2.20;54.90
1614;DHT22;800;48.824;9.346;2023-12-04T05:38:02;2.20;55.00
1614;DHT22;800;48.824;9.346;2023-12-04T05:40:28;2.30;55.10
1614;DHT22;800;48.824;9.346;2023-12-04T05:42:53;2.40;54.90
1614;DHT22;800;48.824;9.346;2023-12-04T05:45:19;2.50;54.80
1614;DHT22;800;48.824;9.346;2023-12-04T05:47:45;2.50;54.70
1614;DHT22;800;48.824;9.346;2023-12-04T05:50:11;2.50;54.70
1614;DHT22;800;48.824;9.346;2023-12-04T05:52:36;2.50;54.70
1614;DHT22;800;48.824;9.346;2023-12-04T05:55:02;2.50;54.70
1614;DHT22;800;48.824;9.346;2023-12-04T05:57:28;2.50;54.80
1614;DHT22;800;48.824;9.346;2023-12-04T05:59:54;2.50;54.80
1614;DHT22;800;48.824;9.346;2023-12-04T06:02:20;2.60;54.90
1614;DHT22;800;48.824;9.346;2023-12-04T06:04:46;2.60;54.70
1614;DHT22;800;48.824;9.346;2023-12-04T06:07:11;2.60;54.60
1614;DHT22;800;48.824;9.346;2023-12-04T06:09:37;2.60;54.60
1614;DHT22;800;48.824;9.346;2023-12-04T06:12:03;2.60;54.70
1614;DHT22;800;48.824;9.346;2023-12-04T06:14:34;2.50;54.50
1614;DHT22;800;48.824;9.346;2023-12-04T06:17:00;2.50;54.40
1614;DHT22;800;48.824;9.346;2023-12-04T06:19:27;2.50;54.90
1614;DHT22;800;48.824;9.346;2023-12-04T06:21:53;2.20;55.10
1614;DHT22;800;48.824;9.346;2023-12-04T06:24:20;2.10;55.30
1614;DHT22;800;48.824;9.346;2023-12-04T06:26:48;2.00;55.70
1614;DHT22;800;48.824;9.346;2023-12-04T06:29:15;1.80;55.40
1614;DHT22;800;48.824;9.346;2023-12-04T06:31:41;1.60;56.10
1614;DHT22;800;48.824;9.346;2023-12-04T06:34:07;1.80;56.40
1614;DHT22;800;48.824;9.346;2023-12-04T06:36:37;2.20;56.20
1614;DHT22;800;48.824;9.346;2023-12-04T06:39:06;2.60;57.50
1614;DHT22;800;48.824;9.346;2023-12-04T06:41:34;3.20;58.10
1614;DHT22;800;48.824;9.346;2023-12-04T06:44:00;3.30;57.40
1614;DHT22;800;48.824;9.346;2023-12-04T06:46:27;3.60;57.00
1614;DHT22;800;48.824;9.346;2023-12-04T06:48:57;3.50;54.50
1614;DHT22;800;48.824;9.346;2023-12-04T06:51:22;2.40;53.30
1614;DHT22;800;48.824;9.346;2023-12-04T06:53:48;1.80;55.20
1614;DHT22;800;48.824;9.346;2023-12-04T06:56:15;1.70;55.80
1614;DHT22;800;48.824;9.346;2023-12-04T06:58:41;1.60;56.20
1614;DHT22;800;48.824;9.346;2023-12-04T07:01:06;1.40;56.50
1614;DHT22;800;48.824;9.346;2023-12-04T07:03:32;1.10;56.80
1614;DHT22;800;48.824;9.346;2023-12-04T07:05:57;0.90;57.60
1614;DHT22;800;48.824;9.346;2023-12-04T07:08:23;0.80;57.80
1614;DHT22;800;48.824;9.346;2023-12-04T07:10:49;0.60;58.30
1614;DHT22;800;48.824;9.346;2023-12-04T07:13:14;0.80;58.70
1614;DHT22;800;48.824;9.346;2023-12-04T07:15:40;1.00;58.40
1614;DHT22;800;48.824;9.346;2023-12-04T07:18:05;1.40;57.90
1614;DHT22;800;48.824;9.346;2023-12-04T07:20:31;1.50;57.60
1614;DHT22;800;48.824;9.346;2023-12-04T07:22:56;1.50;56.90
1614;DHT22;800;48.824;9.346;2023-12-04T07:25:23;1.20;56.90
1614;DHT22;800;48.824;9.346;2023-12-04T07:27:49;1.10;57.70
1614;DHT22;800;48.824;9.346;2023-12-04T07:30:15;1.00;58.20
1614;DHT22;800;48.824;9.346;2023-12-04T07:32:41;1.10;58.10
1614;DHT22;800;48.824;9.346;2023-12-04T07:35:07;1.00;58.10
1614;DHT22;800;48.824;9.346;2023-12-04T07:37:32;0.90;58.30
1614;DHT22;800;48.824;9.346;2023-12-04T07:39:58;0.90;58.30
1614;DHT22;800;48.824;9.346;2023-12-04T07:42:24;1.00;58.20
1614;DHT22;800;48.824;9.346;2023-12-04T07:44:50;1.00;58.10
1614;DHT22;800;48.824;9.346;2023-12-04T07:47:15;1.00;58.10
1614;DHT22;800;48.824;9.346;2023-12-04T07:49:42;1.20;57.80
1614;DHT22;800;48.824;9.346;2023-12-04T07:52:07;1.30;57.90
1614;DHT22;800;48.824;9.346;2023-12-04T07:54:33;1.40;57.80
1614;DHT22;800;48.824;9.346;2023-12-04T07:56:59;1.20;57.60
1614;DHT22;800;48.824;9.346;2023-12-04T07:59:25;1.20;57.70
1614;DHT22;800;48.824;9.346;2023-12-04T08:01:51;1.30;57.80
1614;DHT22;800;48.824;9.346;2023-12-04T08:04:16;1.50;57.60
1614;DHT22;800;48.824;9.346;2023-12-04T08:06:42;1.70;57.00
1614;DHT22;800;48.824;9.346;2023-12-04T08:09:08;1.60;56.70
1614;DHT22;800;48.824;9.346;2023-12-04T08:11:35;1.70;56.80
1614;DHT22;800;48.824;9.346;2023-12-04T08:14:01;1.60;56.80
1614;DHT22;800;48.824;9.346;2023-12-04T08:16:27;1.70;56.70
1614;DHT22;800;48.824;9.346;2023-12-04T08:18:54;1.70;57.00
1614;DHT22;800;48.824;9.346;2023-12-04T08:21:20;2.00;56.80
1614;DHT22;800;48.824;9.346;2023-12-04T08:23:45;1.90;55.80
1614;DHT22;800;48.824;9.346;2023-12-04T08:26:11;1.90;56.20
1614;DHT22;800;48.824;9.346;2023-12-04T08:28:37;2.10;56.20
1614;DHT22;800;48.824;9.346;2023-12-04T08:31:07;2.30;55.90
1614;DHT22;800;48.824;9.346;2023-12-04T08:33:33;2.40;55.70
1614;DHT22;800;48.824;9.346;2023-12-04T08:36:00;2.20;55.40
1614;DHT22;800;48.824;9.346;2023-12-04T08:38:25;2.10;56.30
1614;DHT22;800;48.824;9.346;2023-12-04T08:40:51;2.20;56.40
1614;DHT22;800;48.824;9.346;2023-12-04T08:43:16;2.20;56.00
1614;DHT22;800;48.824;9.346;2023-12-04T08:45:43;2.20;56.10
1614;DHT22;800;48.824;9.346;2023-12-04T08:48:09;2.00;56.60
1614;DHT22;800;48.824;9.346;2023-12-04T08:50:35;2.00;57.10
1614;DHT22;800;48.824;9.346;2023-12-04T08:53:02;2.30;56.90
1614;DHT22;800;48.824;9.346;2023-12-04T08:55:28;2.40;56.30
1614;DHT22;800;48.824;9.346;2023-12-04T08:57:53;2.60;56.60
1614;DHT22;800;48.824;9.346;2023-12-04T09:00:19;2.50;56.00
1614;DHT22;800;48.824;9.346;2023-12-04T09:02:45;2.20;56.30
1614;DHT22;800;48.824;9.346;2023-12-04T09:05:10;2.10;56.80
1614;DHT22;800;48.824;9.346;2023-12-04T09:07:36;1.90;56.90
1614;DHT22;800;48.824;9.346;2023-12-04T09:10:02;2.10;57.40
1614;DHT22;800;48.824;9.346;2023-12-04T09:12:28;2.20;56.80
1614;DHT22;800;48.824;9.346;2023-12-04T09:14:53;2.30;56.90
1614;DHT22;800;48.824;9.346;2023-12-04T09:17:19;2.40;56.50
1614;DHT22;800;48.824;9.346;2023-12-04T09:19:46;2.20;56.30
1614;DHT22;800;48.824;9.346;2023-12-04T09:22:11;2.20;56.80
1614;DHT22;800;48.824;9.346;2023-12-04T09:24:37;2.30;56.60
1614;DHT22;800;48.824;9.346;2023-12-04T09:27:02;2.50;56.90
1614;DHT22;800;48.824;9.346;2023-12-04T09:29:28;2.80;56.50
1614;DHT22;800;48.824;9.346;2023-12-04T09:31:55;3.00;56.00
1614;DHT22;800;48.824;9.346;2023-12-04T09:34:20;3.10;55.80
1614;DHT22;800;48.824;9.346;2023-12-04T09:36:47;3.40;55.90
1614;DHT22;800;48.824;9.346;2023-12-04T09:39:13;3.30;55.30
1614;DHT22;800;48.824;9.346;2023-12-04T09:41:40;3.20;56.00
1614;DHT22;800;48.824;9.346;2023-12-04T09:44:07;3.40;56.00
1614;DHT22;800;48.824;9.346;2023-12-04T09:46:34;3.50;55.70
1614;DHT22;800;48.824;9.346;2023-12-04T09:48:59;3.40;55.40
1614;DHT22;800;48.824;9.346;2023-12-04T09:51:27;3.20;55.40
1614;DHT22;800;48.824;9.346;2023-12-04T09:53:54;3.30;56.00
1614;DHT22;800;48.824;9.346;2023-12-04T09:56:21;3.40;55.50
1614;DHT22;800;48.824;9.346;2023-12-04T09:58:56;3.00;55.30
1614;DHT22;800;48.824;9.346;2023-12-04T10:01:24;3.00;56.40
1614;DHT22;800;48.824;9.346;2023-12-04T10:03:50;3.00;56.30
1614;DHT22;800;48.824;9.346;2023-12-04T10:06:16;3.10;57.00
1614;DHT22;800;48.824;9.346;2023-12-04T10:08:45;3.30;56.70
1614;DHT22;800;48.824;9.346;2023-12-04T10:11:13;3.00;56.30
1614;DHT22;800;48.824;9.346;2023-12-04T10:13:40;2.70;57.10
1614;DHT22;800;48.824;9.346;2023-12-04T10:16:07;2.80;57.90
1614;DHT22;800;48.824;9.346;2023-12-04T10:18:33;3.00;57.80
1614;DHT22;800;48.824;9.346;2023-12-04T10:20:59;3.00;57.10
1614;DHT22;800;48.824;9.346;2023-12-04T10:23:39;3.00;57.40
1614;DHT22;800;48.824;9.346;2023-12-04T10:26:05;2.70;57.30
1614;DHT22;800;48.824;9.346;2023-12-04T10:28:32;2.50;57.90
1614;DHT22;800;48.824;9.346;2023-12-04T10:30:58;2.50;58.60
1614;DHT22;800;48.824;9.346;2023-12-04T10:33:25;2.70;58.60
1614;DHT22;800;48.824;9.346;2023-12-04T10:35:54;2.80;58.60
1614;DHT22;800;48.824;9.346;2023-12-04T10:38:21;2.80;58.20
1614;DHT22;800;48.824;9.346;2023-12-04T10:40:47;2.80;58.10
1614;DHT22;800;48.824;9.346;2023-12-04T10:43:22;2.60;58.40
1614;DHT22;800;48.824;9.346;2023-12-04T10:45:50;2.50;58.60
1614;DHT22;800;48.824;9.346;2023-12-04T10:48:18;2.40;58.90
1614;DHT22;800;48.824;9.346;2023-12-04T10:50:45;2.40;59.00
1614;DHT22;800;48.824;9.346;2023-12-04T10:53:12;2.60;59.10
1614;DHT22;800;48.824;9.346;2023-12-04T10:55:39;2.80;59.10
1614;DHT22;800;48.824;9.346;2023-12-04T10:58:09;2.90;58.90
1614;DHT22;800;48.824;9.346;2023-12-04T11:00:42;3.00;58.70
1614;DHT22;800;48.824;9.346;2023-12-04T11:03:12;3.10;58.70
1614;DHT22;800;48.824;9.346;2023-12-04T11:05:40;3.30;57.90
1614;DHT22;800;48.824;9.346;2023-12-04T11:08:08;3.20;57.60
1614;DHT22;800;48.824;9.346;2023-12-04T11:10:39;3.40;57.80
1614;DHT22;800;48.824;9.346;2023-12-04T11:13:12;3.30;56.50
1614;DHT22;800;48.824;9.346;2023-12-04T11:15:40;3.20;56.90
1614;DHT22;800;48.824;9.346;2023-12-04T11:18:09;3.10;57.40
1614;DHT22;800;48.824;9.346;2023-12-04T11:20:41;3.10;57.70
1614;DHT22;800;48.824;9.346;2023-12-04T11:23:09;3.40;58.00
1614;DHT22;800;48.824;9.346;2023-12-04T11:25:35;3.50;57.10
1614;DHT22;800;48.824;9.346;2023-12-04T11:28:02;3.30;56.90
1614;DHT22;800;48.824;9.346;2023-12-04T11:30:29;3.00;57.00
1614;DHT22;800;48.824;9.346;2023-12-04T11:32:55;3.20;57.80
1614;DHT22;800;48.824;9.346;2023-12-04T11:35:25;3.10;57.50
1614;DHT22;800;48.824;9.346;2023-12-04T11:37:52;3.30;57.50
1614;DHT22;800;48.824;9.346;2023-12-04T11:40:18;3.50;57.60
1614;DHT22;800;48.824;9.346;2023-12-04T11:42:44;3.70;57.30
1614;DHT22;800;48.824;9.346;2023-12-04T11:45:10;3.90;57.10
1614;DHT22;800;48.824;9.346;2023-12-04T11:47:55;3.70;57.10
1614;DHT22;800;48.824;9.346;2023-12-04T11:50:24;3.60;57.20
1614;DHT22;800;48.824;9.346;2023-12-04T11:52:49;3.70;57.50
1614;DHT22;800;48.824;9.346;2023-12-04T11:55:21;3.70;57.60
1614;DHT22;800;48.824;9.346;2023-12-04T11:57:49;3.40;57.90
1614;DHT22;800;48.824;9.346;2023-12-04T12:05:20;3.90;58.10
1614;DHT22;800;48.824;9.346;2023-12-04T12:07:46;3.80;58.10
1614;DHT22;800;48.824;9.346;2023-12-04T12:10:13;3.70;58.20
1614;DHT22;800;48.824;9.346;2023-12-04T12:12:42;3.70;58.40
1614;DHT22;800;48.824;9.346;2023-12-04T12:15:09;3.60;58.20
1614;DHT22;800;48.824;9.346;2023-12-04T12:17:35;3.50;58.30
1614;DHT22;800;48.824;9.346;2023-12-04T12:20:02;3.60;58.50
1614;DHT22;800;48.824;9.346;2023-12-04T12:22:32;3.70;58.40
1614;DHT22;800;48.824;9.346;2023-12-04T12:24:58;3.40;58.80
1614;DHT22;800;48.824;9.346;2023-12-04T12:27:25;3.20;59.10
1614;DHT22;800;48.824;9.346;2023-12-04T12:29:50;3.30;58.90
1614;DHT22;800;48.824;9.346;2023-12-04T12:32:16;3.50;59.10
1614;DHT22;800;48.824;9.346;2023-12-04T12:34:42;3.60;59.30
1614;DHT22;800;48.824;9.346;2023-12-04T12:37:08;3.80;58.50
1614;DHT22;800;48.824;9.346;2023-12-04T12:39:34;3.70;58.30
1614;DHT22;800;48.824;9.346;2023-12-04T12:42:00;3.80;58.20
1614;DHT22;800;48.824;9.346;2023-12-04T12:44:27;3.60;58.40
1614;DHT22;800;48.824;9.346;2023-12-04T12:46:53;3.80;58.50
1614;DHT22;800;48.824;9.346;2023-12-04T12:49:19;3.90;58.50
1614;DHT22;800;48.824;9.346;2023-12-04T12:51:48;4.00;57.80
1614;DHT22;800;48.824;9.346;2023-12-04T12:54:13;3.90;57.40
1614;DHT22;800;48.824;9.346;2023-12-04T12:56:40;3.70;57.60
1614;DHT22;800;48.824;9.346;2023-12-04T12:59:05;3.40;58.00
1614;DHT22;800;48.824;9.346;2023-12-04T13:01:32;3.40;58.70
1614;DHT22;800;48.824;9.346;2023-12-04T13:03:58;3.20;58.70
1614;DHT22;800;48.824;9.346;2023-12-04T13:06:24;3.50;58.90
1614;DHT22;800;48.824;9.346;2023-12-04T13:08:49;3.80;58.90
1614;DHT22;800;48.824;9.346;2023-12-04T13:11:15;3.80;58.50
1614;DHT22;800;48.824;9.346;2023-12-04T13:13:41;4.00;58.20
1614;DHT22;800;48.824;9.346;2023-12-04T13:16:06;4.10;58.10
1614;DHT22;800;48.824;9.346;2023-12-04T13:18:32;3.90;58.20
1614;DHT22;800;48.824;9.346;2023-12-04T13:21:01;3.80;58.00
1614;DHT22;800;48.824;9.346;2023-12-04T13:23:26;3.60;58.50
1614;DHT22;800;48.824;9.346;2023-12-04T13:25:52;3.50;58.80
1614;DHT22;800;48.824;9.346;2023-12-04T13:28:20;3.40;58.80
1614;DHT22;800;48.824;9.346;2023-12-04T13:30:45;3.30;58.80
1614;DHT22;800;48.824;9.346;2023-12-04T13:33:11;3.30;58.80
1614;DHT22;800;48.824;9.346;2023-12-04T13:35:36;3.50;58.70
1614;DHT22;800;48.824;9.346;2023-12-04T13:38:02;3.50;58.90
1614;DHT22;800;48.824;9.346;2023-12-04T13:40:28;3.30;59.00
1614;DHT22;800;48.824;9.346;2023-12-04T13:42:57;3.40;60.00
1614;DHT22;800;48.824;9.346;2023-12-04T13:45:41;3.50;59.70
1614;DHT22;800;48.824;9.346;2023-12-04T13:48:07;3.20;59.30
1614;DHT22;800;48.824;9.346;2023-12-04T13:50:33;2.90;59.80
1614;DHT22;800;48.824;9.346;2023-12-04T13:52:58;2.80;60.90
1614;DHT22;800;48.824;9.346;2023-12-04T13:55:24;2.80;61.20
1614;DHT22;800;48.824;9.346;2023-12-04T13:58:21;2.70;61.30
1614;DHT22;800;48.824;9.346;2023-12-04T14:01:04;2.80;61.50
1614;DHT22;800;48.824;9.346;2023-12-04T14:03:39;3.00;61.10
1614;DHT22;800;48.824;9.346;2023-12-04T14:06:05;3.00;61.10
1614;DHT22;800;48.824;9.346;2023-12-04T14:08:31;3.10;61.20
1614;DHT22;800;48.824;9.346;2023-12-04T14:10:56;3.00;61.60
1614;DHT22;800;48.824;9.346;2023-12-04T14:13:22;2.90;62.60
1614;DHT22;800;48.824;9.346;2023-12-04T14:15:48;3.00;62.50
1614;DHT22;800;48.824;9.346;2023-12-04T14:18:14;3.00;62.40
1614;DHT22;800;48.824;9.346;2023-12-04T14:20:39;2.80;63.10
1614;DHT22;800;48.824;9.346;2023-12-04T14:23:05;2.80;63.30
1614;DHT22;800;48.824;9.346;2023-12-04T14:25:30;3.20;63.10
1614;DHT22;800;48.824;9.346;2023-12-04T14:27:56;3.00;62.60
1614;DHT22;800;48.824;9.346;2023-12-04T14:30:21;3.00;63.20
1614;DHT22;800;48.824;9.346;2023-12-04T14:32:47;3.20;62.80
1614;DHT22;800;48.824;9.346;2023-12-04T14:35:14;3.30;61.90
1614;DHT22;800;48.824;9.346;2023-12-04T14:37:39;3.30;61.40
1614;DHT22;800;48.824;9.346;2023-12-04T14:40:06;3.20;61.20
1614;DHT22;800;48.824;9.346;2023-12-04T14:42:31;3.50;61.50
1614;DHT22;800;48.824;9.346;2023-12-04T14:44:57;3.30;60.80
1614;DHT22;800;48.824;9.346;2023-12-04T14:47:22;3.30;61.30
1614;DHT22;800;48.824;9.346;2023-12-04T14:49:48;3.20;61.70
1614;DHT22;800;48.824;9.346;2023-12-04T14:52:19;2.90;61.80
1614;DHT22;800;48.824;9.346;2023-12-04T14:54:47;3.00;62.30
1614;DHT22;800;48.824;9.346;2023-12-04T14:57:31;3.20;62.60
1614;DHT22;800;48.824;9.346;2023-12-04T15:00:07;3.50;62.50
1614;DHT22;800;48.824;9.346;2023-12-04T15:02:51;3.80;61.70
1614;DHT22;800;48.824;9.346;2023-12-04T15:05:36;3.80;60.80
1614;DHT22;800;48.824;9.346;2023-12-04T15:08:25;3.80;61.10
1614;DHT22;800;48.824;9.346;2023-12-04T15:10:51;3.80;60.90
1614;DHT22;800;48.824;9.346;2023-12-04T15:13:35;3.80;60.10
1614;DHT22;800;48.824;9.346;2023-12-04T15:16:07;3.80;60.80
1614;DHT22;800;48.824;9.346;2023-12-04T15:18:38;3.70;61.10
1614;DHT22;800;48.824;9.346;2023-12-04T15:21:24;3.60;61.70
1614;DHT22;800;48.824;9.346;2023-12-04T15:23:50;3.80;61.90
1614;DHT22;800;48.824;9.346;2023-12-04T15:26:16;3.70;61.80
1614;DHT22;800;48.824;9.346;2023-12-04T15:28:43;3.80;62.20
1614;DHT22;800;48.824;9.346;2023-12-04T15:31:09;3.80;61.90
1614;DHT22;800;48.824;9.346;2023-12-04T15:33:34;3.70;62.50
1614;DHT22;800;48.824;9.346;2023-12-04T15:36:00;3.80;63.10
1614;DHT22;800;48.824;9.346;2023-12-04T15:38:25;4.00;62.50
1614;DHT22;800;48.824;9.346;2023-12-04T15:40:51;4.10;61.60
1614;DHT22;800;48.824;9.346;2023-12-04T15:43:17;4.00;62.20
1614;DHT22;800;48.824;9.346;2023-12-04T15:45:43;3.90;62.20
1614;DHT22;800;48.824;9.346;2023-12-04T15:48:09;3.80;61.80
1614;DHT22;800;48.824;9.346;2023-12-04T15:50:35;3.80;62.50
1614;DHT22;800;48.824;9.346;2023-12-04T15:53:01;3.50;63.00
1614;DHT22;800;48.824;9.346;2023-12-04T15:55:27;3.60;63.40
1614;DHT22;800;48.824;9.346;2023-12-04T15:57:53;3.60;63.60
1614;DHT22;800;48.824;9.346;2023-12-04T16:00:23;3.80;63.80
1614;DHT22;800;48.824;9.346;2023-12-04T16:02:48;3.80;63.10
1614;DHT22;800;48.824;9.346;2023-12-04T16:05:14;4.00;62.90
1614;DHT22;800;48.824;9.346;2023-12-04T16:07:40;3.90;62.20
1614;DHT22;800;48.824;9.346;2023-12-04T16:10:06;3.80;64.10
1614;DHT22;800;48.824;9.346;2023-12-04T16:12:32;3.90;62.00
1614;DHT22;800;48.824;9.346;2023-12-04T16:14:58;3.90;61.70
1614;DHT22;800;48.824;9.346;2023-12-04T16:17:23;3.80;61.80
1614;DHT22;800;48.824;9.346;2023-12-04T16:19:49;3.70;62.60
1614;DHT22;800;48.824;9.346;2023-12-04T16:22:15;3.80;62.70
1614;DHT22;800;48.824;9.346;2023-12-04T16:24:41;3.80;63.10
1614;DHT22;800;48.824;9.346;2023-12-04T16:27:06;3.60;63.40
1614;DHT22;800;48.824;9.346;2023-12-04T16:29:32;3.40;63.90
1614;DHT22;800;48.824;9.346;2023-12-04T16:32:00;3.50;64.40
1614;DHT22;800;48.824;9.346;2023-12-04T16:34:27;3.70;64.10
1614;DHT22;800;48.824;9.346;2023-12-04T16:36:53;3.80;63.40